sensor_id;sensor_type;location;lat;lon;timestamp;pressure;altitude;pressure_sealevel;temperature;humidity
35224;BME280;21367;51.930;8.112;2023-03-05T00:03:03;101433.28;;;4.06;87.46
35224;BME280;21367;51.930;8.112;2023-03-05T00:08:06;101435.38;;;3.89;89.00
35224;BME280;21367;51.930;8.112;2023-03-05T00:13:13;101433.13;;;3.72;88.75
35224;BME280;21367;51.930;8.112;2023-03-05T00:18:16;101426.44;;;3.94;88.54
35224;BME280;21367;51.930;8.112;2023-03-05T00:23:20;101426.75;;;3.87;89.13
35224;BME280;21367;51.930;8.112;2023-03-05T00:28:27;101412.34;;;3.98;88.99
35224;BME280;21367;51.930;8.112;2023-03-05T00:33:30;101409.72;;;4.18;87.97
35224;BME280;21367;51.930;8.112;2023-03-05T00:38:34;101402.97;;;4.19;88.36
35224;BME280;21367;51.930;8.112;2023-03-05T00:43:40;101401.13;;;4.06;89.17
35224;BME280;21367;51.930;8.112;2023-03-05T00:48:43;101403.06;;;3.99;89.58
35224;BME280;21367;51.930;8.112;2023-03-05T00:53:47;101394.78;;;4.01;89.75
35224;BME280;21367;51.930;8.112;2023-03-05T00:58:54;101383.16;;;3.83;89.04
35224;BME280;21367;51.930;8.112;2023-03-05T01:03:58;101377.69;;;3.78;90.73
35224;BME280;21367;51.930;8.112;2023-03-05T01:09:02;101364.03;;;3.98;90.15
35224;BME280;21367;51.930;8.112;2023-03-05T01:14:08;101365.25;;;4.03;89.56
35224;BME280;21367;51.930;8.112;2023-03-05T01:19:12;101358.97;;;3.88;90.63
35224;BME280;21367;51.930;8.112;2023-03-05T01:24:16;101354.19;;;3.81;92.17
35224;BME280;21367;51.930;8.112;2023-03-05T01:29:22;101354.91;;;3.90;91.59
35224;BME280;21367;51.930;8.112;2023-03-05T01:34:26;101336.13;;;3.78;91.86
35224;BME280;21367;51.930;8.112;2023-03-05T01:39:30;101337.75;;;3.87;91.36
35224;BME280;21367;51.930;8.112;2023-03-05T01:44:38;101333.25;;;3.73;90.99
35224;BME280;21367;51.930;8.112;2023-03-05T01:49:41;101328.66;;;3.79;91.61
35224;BME280;21367;51.930;8.112;2023-03-05T01:54:48;101329.34;;;3.56;92.52
35224;BME280;21367;51.930;8.112;2023-03-05T01:59:59;101316.69;;;3.78;92.62
35224;BME280;21367;51.930;8.112;2023-03-05T02:05:17;101299.03;;;3.69;92.36
35224;BME280;21367;51.930;8.112;2023-03-05T02:10:22;101298.69;;;3.65;93.14
35224;BME280;21367;51.930;8.112;2023-03-05T02:15:29;101294.63;;;3.24;95.13
35224;BME280;21367;51.930;8.112;2023-03-05T02:20:44;101292.38;;;3.50;94.41
35224;BME280;21367;51.930;8.112;2023-03-05T02:25:51;101288.09;;;3.48;94.77
35224;BME280;21367;51.930;8.112;2023-03-05T02:30:56;101287.50;;;3.73;94.06
35224;BME280;21367;51.930;8.112;2023-03-05T02:35:59;101278.16;;;3.52;94.37
35224;BME280;21367;51.930;8.112;2023-03-05T02:41:06;101272.63;;;3.67;93.45
35224;BME280;21367;51.930;8.112;2023-03-05T02:46:11;101271.81;;;3.46;94.95
35224;BME280;21367;51.930;8.112;2023-03-05T02:51:14;101267.75;;;3.48;95.37
35224;BME280;21367;51.930;8.112;2023-03-05T02:56:22;101261.41;;;3.43;96.11
35224;BME280;21367;51.930;8.112;2023-03-05T03:01:27;101255.84;;;3.37;96.65
35224;BME280;21367;51.930;8.112;2023-03-05T03:06:31;101242.16;;;3.57;96.65
35224;BME280;21367;51.930;8.112;2023-03-05T03:11:38;101239.13;;;3.29;95.96
35224;BME280;21367;51.930;8.112;2023-03-05T03:16:42;101231.50;;;3.61;95.69
35224;BME280;21367;51.930;8.112;2023-03-05T03:21:45;101226.25;;;3.38;96.72
35224;BME280;21367;51.930;8.112;2023-03-05T03:26:52;101220.66;;;3.42;97.50
35224;BME280;21367;51.930;8.112;2023-03-05T03:31:56;101218.66;;;3.60;96.31
35224;BME280;21367;51.930;8.112;2023-03-05T03:37:00;101211.63;;;3.45;96.28
35224;BME280;21367;51.930;8.112;2023-03-05T03:42:07;101209.09;;;3.35;97.13
35224;BME280;21367;51.930;8.112;2023-03-05T03:47:11;101197.81;;;3.32;99.44
35224;BME280;21367;51.930;8.112;2023-03-05T03:52:14;101193.69;;;3.44;99.54
35224;BME280;21367;51.930;8.112;2023-03-05T03:57:21;101191.84;;;3.31;99.54
35224;BME280;21367;51.930;8.112;2023-03-05T04:02:24;101181.25;;;3.15;98.77
35224;BME280;21367;51.930;8.112;2023-03-05T04:07:28;101169.56;;;3.17;100.00
35224;BME280;21367;51.930;8.112;2023-03-05T04:12:34;101176.34;;;3.06;100.00
35224;BME280;21367;51.930;8.112;2023-03-05T04:17:38;101163.47;;;2.83;100.00
35224;BME280;21367;51.930;8.112;2023-03-05T04:22:41;101157.72;;;2.95;100.00
35224;BME280;21367;51.930;8.112;2023-03-05T04:27:48;101150.00;;;2.84;100.00
35224;BME280;21367;51.930;8.112;2023-03-05T04:32:51;101156.16;;;2.97;100.00
35224;BME280;21367;51.930;8.112;2023-03-05T04:37:55;101145.66;;;2.93;100.00
35224;BME280;21367;51.930;8.112;2023-03-05T04:43:02;101143.97;;;3.36;100.00
35224;BME280;21367;51.930;8.112;2023-03-05T04:48:06;101145.16;;;3.19;99.46
35224;BME280;21367;51.930;8.112;2023-03-05T04:53:10;101146.06;;;3.19;99.30
35224;BME280;21367;51.930;8.112;2023-03-05T04:58:16;101139.75;;;3.14;100.00
35224;BME280;21367;51.930;8.112;2023-03-05T05:03:20;101145.84;;;3.38;99.40
35224;BME280;21367;51.930;8.112;2023-03-05T05:08:24;101138.38;;;3.08;99.47
35224;BME280;21367;51.930;8.112;2023-03-05T05:13:31;101127.63;;;3.22;100.00
35224;BME280;21367;51.930;8.112;2023-03-05T05:18:35;101134.38;;;3.43;100.00
35224;BME280;21367;51.930;8.112;2023-03-05T05:23:39;101129.78;;;3.28;100.00
35224;BME280;21367;51.930;8.112;2023-03-05T05:28:45;101118.00;;;3.18;100.00
35224;BME280;21367;51.930;8.112;2023-03-05T05:33:48;101127.03;;;3.14;100.00
35224;BME280;21367;51.930;8.112;2023-03-05T05:38:52;101122.25;;;3.07;100.00
35224;BME280;21367;51.930;8.112;2023-03-05T05:43:59;101123.88;;;3.17;100.00
35224;BME280;21367;51.930;8.112;2023-03-05T05:49:03;101113.97;;;3.10;100.00
35224;BME280;21367;51.930;8.112;2023-03-05T05:54:06;101120.94;;;3.12;100.00
35224;BME280;21367;51.930;8.112;2023-03-05T05:59:13;101118.19;;;3.31;100.00
35224;BME280;21367;51.930;8.112;2023-03-05T06:04:16;101117.84;;;3.27;100.00
35224;BME280;21367;51.930;8.112;2023-03-05T06:09:20;101118.66;;;3.15;100.00
35224;BME280;21367;51.930;8.112;2023-03-05T06:14:27;101102.72;;;3.28;100.00
35224;BME280;21367;51.930;8.112;2023-03-05T06:19:31;101110.25;;;3.16;100.00
35224;BME280;21367;51.930;8.112;2023-03-05T06:24:36;101108.09;;;3.21;100.00
35224;BME280;21367;51.930;8.112;2023-03-05T06:29:42;101110.47;;;3.30;100.00
35224;BME280;21367;51.930;8.112;2023-03-05T06:34:46;101110.97;;;3.25;100.00
35224;BME280;21367;51.930;8.112;2023-03-05T06:39:52;101107.56;;;3.25;100.00
35224;BME280;21367;51.930;8.112;2023-03-05T06:44:59;101101.41;;;3.33;100.00
35224;BME280;21367;51.930;8.112;2023-03-05T06:50:03;101103.13;;;3.44;100.00
35224;BME280;21367;51.930;8.112;2023-03-05T06:55:08;101096.50;;;3.46;100.00
35224;BME280;21367;51.930;8.112;2023-03-05T07:00:16;101105.88;;;3.36;100.00
35224;BME280;21367;51.930;8.112;2023-03-05T07:05:19;101104.78;;;3.44;100.00
35224;BME280;21367;51.930;8.112;2023-03-05T07:10:23;101103.72;;;3.52;100.00
35224;BME280;21367;51.930;8.112;2023-03-05T07:15:29;101098.88;;;3.33;100.00
35224;BME280;21367;51.930;8.112;2023-03-05T07:20:33;101104.28;;;3.60;100.00
35224;BME280;21367;51.930;8.112;2023-03-05T07:25:37;101098.16;;;3.46;100.00
35224;BME280;21367;51.930;8.112;2023-03-05T07:30:43;101096.25;;;3.65;100.00
35224;BME280;21367;51.930;8.112;2023-03-05T07:35:47;101091.69;;;3.83;100.00
35224;BME280;21367;51.930;8.112;2023-03-05T07:40:51;101091.06;;;3.64;100.00
35224;BME280;21367;51.930;8.112;2023-03-05T07:45:57;101085.03;;;3.85;100.00
35224;BME280;21367;51.930;8.112;2023-03-05T07:51:01;101078.81;;;3.70;100.00
35224;BME280;21367;51.930;8.112;2023-03-05T07:56:05;101075.38;;;4.27;100.00
35224;BME280;21367;51.930;8.112;2023-03-05T08:01:12;101076.59;;;4.20;100.00
35224;BME280;21367;51.930;8.112;2023-03-05T08:06:16;101074.06;;;4.20;99.49
35224;BME280;21367;51.930;8.112;2023-03-05T08:11:20;101066.13;;;3.82;100.00
35224;BME280;21367;51.930;8.112;2023-03-05T08:16:26;101066.66;;;4.47;97.05
35224;BME280;21367;51.930;8.112;2023-03-05T08:21:31;101067.09;;;4.53;97.77
35224;BME280;21367;51.930;8.112;2023-03-05T08:26:36;101053.91;;;4.47;95.68
35224;BME280;21367;51.930;8.112;2023-03-05T08:31:43;101056.13;;;4.54;93.85
35224;BME280;21367;51.930;8.112;2023-03-05T08:36:47;101053.34;;;4.51;95.55
35224;BME280;21367;51.930;8.112;2023-03-05T08:41:51;101047.50;;;4.40;95.76
35224;BME280;21367;51.930;8.112;2023-03-05T08:46:58;101046.38;;;4.72;96.33
35224;BME280;21367;51.930;8.112;2023-03-05T08:52:01;101038.38;;;4.79;93.08
35224;BME280;21367;51.930;8.112;2023-03-05T08:57:05;101027.94;;;4.99;91.14
35224;BME280;21367;51.930;8.112;2023-03-05T09:02:12;101030.84;;;4.92;91.88
35224;BME280;21367;51.930;8.112;2023-03-05T09:07:16;101028.91;;;5.01;90.59
35224;BME280;21367;51.930;8.112;2023-03-05T09:12:19;101021.53;;;4.93;91.33
35224;BME280;21367;51.930;8.112;2023-03-05T09:17:26;101020.78;;;5.19;89.45
35224;BME280;21367;51.930;8.112;2023-03-05T09:22:29;101024.81;;;5.53;88.66
35224;BME280;21367;51.930;8.112;2023-03-05T09:27:34;101020.31;;;5.88;88.60
35224;BME280;21367;51.930;8.112;2023-03-05T09:32:40;101015.47;;;5.41;87.35
35224;BME280;21367;51.930;8.112;2023-03-05T09:37:43;101015.50;;;5.29;87.31
35224;BME280;21367;51.930;8.112;2023-03-05T09:43:00;101004.59;;;5.18;87.29
35224;BME280;21367;51.930;8.112;2023-03-05T09:48:13;101004.38;;;4.90;87.75
35224;BME280;21367;51.930;8.112;2023-03-05T09:53:26;100998.25;;;5.25;87.13
35224;BME280;21367;51.930;8.112;2023-03-05T09:58:37;100985.25;;;5.59;86.39
35224;BME280;21367;51.930;8.112;2023-03-05T10:03:53;100985.44;;;5.62;81.81
35224;BME280;21367;51.930;8.112;2023-03-05T10:09:03;100982.34;;;6.45;79.60
35224;BME280;21367;51.930;8.112;2023-03-05T10:14:13;100988.47;;;6.21;78.27
35224;BME280;21367;51.930;8.112;2023-03-05T10:19:39;100981.50;;;5.53;79.89
35224;BME280;21367;51.930;8.112;2023-03-05T10:24:52;100974.84;;;5.69;79.49
35224;BME280;21367;51.930;8.112;2023-03-05T10:30:03;100970.03;;;6.12;78.42
35224;BME280;21367;51.930;8.112;2023-03-05T10:35:20;100966.19;;;6.05;80.49
35224;BME280;21367;51.930;8.112;2023-03-05T10:40:28;100947.81;;;6.11;76.85
35224;BME280;21367;51.930;8.112;2023-03-05T10:45:35;100939.97;;;6.34;74.70
35224;BME280;21367;51.930;8.112;2023-03-05T10:50:47;100942.13;;;6.28;75.27
35224;BME280;21367;51.930;8.112;2023-03-05T10:55:52;100933.09;;;6.20;74.12
35224;BME280;21367;51.930;8.112;2023-03-05T11:01:02;100923.97;;;6.37;75.35
35224;BME280;21367;51.930;8.112;2023-03-05T11:06:12;100912.38;;;7.13;71.75
35224;BME280;21367;51.930;8.112;2023-03-05T11:11:17;100909.25;;;6.89;69.62
35224;BME280;21367;51.930;8.112;2023-03-05T11:16:23;100914.84;;;6.14;70.97
35224;BME280;21367;51.930;8.112;2023-03-05T11:21:30;100916.59;;;5.62;75.37
35224;BME280;21367;51.930;8.112;2023-03-05T11:26:34;100915.41;;;5.56;78.76
35224;BME280;21367;51.930;8.112;2023-03-05T11:31:38;100906.72;;;6.06;80.00
35224;BME280;21367;51.930;8.112;2023-03-05T11:36:59;100889.66;;;6.05;79.45
35224;BME280;21367;51.930;8.112;2023-03-05T11:42:06;100888.63;;;6.86;77.90
35224;BME280;21367;51.930;8.112;2023-03-05T11:47:20;100876.44;;;7.10;72.66
35224;BME280;21367;51.930;8.112;2023-03-05T11:52:30;100868.59;;;7.36;69.65
35224;BME280;21367;51.930;8.112;2023-03-05T11:57:43;100871.34;;;7.25;70.90
35224;BME280;21367;51.930;8.112;2023-03-05T12:02:52;100854.09;;;7.81;69.43
35224;BME280;21367;51.930;8.112;2023-03-05T12:08:01;100843.13;;;8.15;68.59
35224;BME280;21367;51.930;8.112;2023-03-05T12:13:11;100836.38;;;8.17;67.12
35224;BME280;21367;51.930;8.112;2023-03-05T12:18:26;100826.69;;;8.43;65.60
35224;BME280;21367;51.930;8.112;2023-03-05T12:23:47;100822.56;;;8.14;64.97
35224;BME280;21367;51.930;8.112;2023-03-05T12:28:54;100817.03;;;7.75;65.24
35224;BME280;21367;51.930;8.112;2023-03-05T12:33:57;100809.00;;;8.47;63.15
35224;BME280;21367;51.930;8.112;2023-03-05T12:44:42;100798.03;;;7.55;65.09
35224;BME280;21367;51.930;8.112;2023-03-05T12:49:46;100792.53;;;7.63;65.51
35224;BME280;21367;51.930;8.112;2023-03-05T12:55:00;100786.16;;;8.03;67.12
35224;BME280;21367;51.930;8.112;2023-03-05T13:00:09;100775.94;;;9.02;63.90
35224;BME280;21367;51.930;8.112;2023-03-05T13:05:19;100764.78;;;8.68;60.43
35224;BME280;21367;51.930;8.112;2023-03-05T13:10:28;100763.03;;;8.01;61.74
35224;BME280;21367;51.930;8.112;2023-03-05T13:15:31;100757.69;;;8.46;62.54
35224;BME280;21367;51.930;8.112;2023-03-05T13:20:37;100747.81;;;8.21;65.70
35224;BME280;21367;51.930;8.112;2023-03-05T13:25:45;100741.94;;;8.05;62.25
35224;BME280;21367;51.930;8.112;2023-03-05T13:30:59;100732.22;;;8.83;62.13
35224;BME280;21367;51.930;8.112;2023-03-05T13:36:05;100731.03;;;8.42;60.36
35224;BME280;21367;51.930;8.112;2023-03-05T13:41:21;100726.00;;;8.11;58.78
35224;BME280;21367;51.930;8.112;2023-03-05T13:46:26;100716.72;;;7.80;59.64
35224;BME280;21367;51.930;8.112;2023-03-05T13:51:41;100714.69;;;7.58;61.60
35224;BME280;21367;51.930;8.112;2023-03-05T13:56:55;100702.81;;;7.75;62.34
35224;BME280;21367;51.930;8.112;2023-03-05T14:02:00;100695.28;;;7.62;62.63
35224;BME280;21367;51.930;8.112;2023-03-05T14:07:07;100687.34;;;7.74;63.81
35224;BME280;21367;51.930;8.112;2023-03-05T14:12:26;100672.91;;;8.57;60.90
35224;BME280;21367;51.930;8.112;2023-03-05T14:17:37;100674.03;;;8.98;57.70
35224;BME280;21367;51.930;8.112;2023-03-05T14:22:43;100663.69;;;8.10;59.64
35224;BME280;21367;51.930;8.112;2023-03-05T14:27:50;100661.31;;;9.00;58.16
35224;BME280;21367;51.930;8.112;2023-03-05T14:32:54;100645.09;;;8.83;57.79
35224;BME280;21367;51.930;8.112;2023-03-05T14:37:58;100645.31;;;8.70;59.82
35224;BME280;21367;51.930;8.112;2023-03-05T14:43:05;100634.72;;;8.80;59.24
35224;BME280;21367;51.930;8.112;2023-03-05T14:48:15;100629.34;;;8.23;59.41
35224;BME280;21367;51.930;8.112;2023-03-05T14:53:21;100619.66;;;8.00;60.56
35224;BME280;21367;51.930;8.112;2023-03-05T14:58:30;100612.44;;;7.93;61.29
35224;BME280;21367;51.930;8.112;2023-03-05T15:03:35;100610.72;;;7.59;62.34
35224;BME280;21367;51.930;8.112;2023-03-05T15:08:40;100598.97;;;7.62;60.66
35224;BME280;21367;51.930;8.112;2023-03-05T15:13:46;100597.50;;;7.68;59.90
35224;BME280;21367;51.930;8.112;2023-03-05T15:18:51;100584.63;;;7.82;58.63
35224;BME280;21367;51.930;8.112;2023-03-05T15:23:55;100581.72;;;8.09;58.05
35224;BME280;21367;51.930;8.112;2023-03-05T15:29:01;100572.03;;;8.38;58.48
35224;BME280;21367;51.930;8.112;2023-03-05T15:34:05;100568.00;;;7.91;58.77
35224;BME280;21367;51.930;8.112;2023-03-05T15:39:08;100571.69;;;7.63;60.15
35224;BME280;21367;51.930;8.112;2023-03-05T15:44:15;100565.66;;;7.95;59.51
35224;BME280;21367;51.930;8.112;2023-03-05T15:49:19;100560.91;;;7.69;59.76
35224;BME280;21367;51.930;8.112;2023-03-05T15:54:24;100549.28;;;7.92;58.47
35224;BME280;21367;51.930;8.112;2023-03-05T15:59:30;100543.28;;;7.40;60.30
35224;BME280;21367;51.930;8.112;2023-03-05T16:04:34;100542.97;;;7.18;61.21
35224;BME280;21367;51.930;8.112;2023-03-05T16:09:41;100535.59;;;7.40;59.92
35224;BME280;21367;51.930;8.112;2023-03-05T16:14:49;100534.06;;;7.44;60.41
35224;BME280;21367;51.930;8.112;2023-03-05T16:19:53;100526.00;;;7.20;60.03
35224;BME280;21367;51.930;8.112;2023-03-05T16:24:58;100524.97;;;7.33;59.47
35224;BME280;21367;51.930;8.112;2023-03-05T16:30:06;100517.84;;;7.11;60.85
35224;BME280;21367;51.930;8.112;2023-03-05T16:35:11;100517.66;;;6.75;61.73
35224;BME280;21367;51.930;8.112;2023-03-05T16:40:15;100521.38;;;6.65;62.89
35224;BME280;21367;51.930;8.112;2023-03-05T16:45:21;100512.38;;;6.72;62.90
35224;BME280;21367;51.930;8.112;2023-03-05T16:50:25;100504.63;;;6.70;63.00
35224;BME280;21367;51.930;8.112;2023-03-05T16:55:29;100504.53;;;6.53;63.77
35224;BME280;21367;51.930;8.112;2023-03-05T17:00:35;100506.88;;;6.33;64.37
35224;BME280;21367;51.930;8.112;2023-03-05T17:05:39;100506.88;;;6.33;65.34
35224;BME280;21367;51.930;8.112;2023-03-05T17:10:42;100499.97;;;6.32;65.30
35224;BME280;21367;51.930;8.112;2023-03-05T17:15:49;100490.41;;;6.13;66.20
35224;BME280;21367;51.930;8.112;2023-03-05T17:20:52;100494.97;;;6.34;66.78
35224;BME280;21367;51.930;8.112;2023-03-05T17:25:56;100490.06;;;6.22;66.47
35224;BME280;21367;51.930;8.112;2023-03-05T17:31:03;100491.69;;;6.05;67.49
35224;BME280;21367;51.930;8.112;2023-03-05T17:36:12;100488.50;;;6.09;67.53
35224;BME280;21367;51.930;8.112;2023-03-05T17:41:17;100489.13;;;6.05;67.86
35224;BME280;21367;51.930;8.112;2023-03-05T17:46:24;100492.44;;;6.19;68.29
35224;BME280;21367;51.930;8.112;2023-03-05T17:51:27;100490.88;;;6.06;69.17
35224;BME280;21367;51.930;8.112;2023-03-05T17:56:31;100486.88;;;6.26;69.11
35224;BME280;21367;51.930;8.112;2023-03-05T18:01:37;100488.56;;;6.25;69.53
35224;BME280;21367;51.930;8.112;2023-03-05T18:06:41;100485.88;;;5.93;70.15
35224;BME280;21367;51.930;8.112;2023-03-05T18:11:44;100480.16;;;5.97;71.40
35224;BME280;21367;51.930;8.112;2023-03-05T18:16:51;100479.19;;;5.95;71.21
35224;BME280;21367;51.930;8.112;2023-03-05T18:21:56;100478.78;;;5.89;72.12
35224;BME280;21367;51.930;8.112;2023-03-05T18:27:00;100481.28;;;5.87;72.33
35224;BME280;21367;51.930;8.112;2023-03-05T18:32:07;100466.66;;;5.70;73.06
35224;BME280;21367;51.930;8.112;2023-03-05T18:37:11;100464.66;;;5.64;73.49
35224;BME280;21367;51.930;8.112;2023-03-05T18:42:14;100460.44;;;5.65;73.69
35224;BME280;21367;51.930;8.112;2023-03-05T18:47:21;100450.44;;;5.68;73.69
35224;BME280;21367;51.930;8.112;2023-03-05T18:52:24;100456.59;;;5.14;75.63
35224;BME280;21367;51.930;8.112;2023-03-05T18:57:28;100447.88;;;5.53;75.25
35224;BME280;21367;51.930;8.112;2023-03-05T19:02:34;100445.94;;;5.49;75.35
35224;BME280;21367;51.930;8.112;2023-03-05T19:07:37;100444.16;;;5.48;74.95
35224;BME280;21367;51.930;8.112;2023-03-05T19:12:52;100444.78;;;5.44;74.96
35224;BME280;21367;51.930;8.112;2023-03-05T19:24:16;100442.38;;;5.32;76.09
35224;BME280;21367;51.930;8.112;2023-03-05T19:29:21;100436.03;;;5.10;77.20
35224;BME280;21367;51.930;8.112;2023-03-05T19:34:27;100432.72;;;5.12;76.80
35224;BME280;21367;51.930;8.112;2023-03-05T19:39:31;100423.91;;;5.06;77.17
35224;BME280;21367;51.930;8.112;2023-03-05T19:44:35;100414.41;;;5.04;77.72
35224;BME280;21367;51.930;8.112;2023-03-05T19:49:41;100410.44;;;4.94;77.79
35224;BME280;21367;51.930;8.112;2023-03-05T19:54:45;100413.00;;;4.94;78.32
35224;BME280;21367;51.930;8.112;2023-03-05T19:59:50;100407.66;;;4.76;79.29
35224;BME280;21367;51.930;8.112;2023-03-05T20:04:56;100406.59;;;4.73;79.53
35224;BME280;21367;51.930;8.112;2023-03-05T20:10:00;100408.94;;;4.98;78.84
35224;BME280;21367;51.930;8.112;2023-03-05T20:15:05;100409.84;;;4.98;78.58
35224;BME280;21367;51.930;8.112;2023-03-05T20:20:13;100407.66;;;5.04;78.63
35224;BME280;21367;51.930;8.112;2023-03-05T20:25:18;100390.63;;;5.03;78.57
35224;BME280;21367;51.930;8.112;2023-03-05T20:30:24;100395.78;;;4.90;78.84
35224;BME280;21367;51.930;8.112;2023-03-05T20:35:31;100387.91;;;4.72;78.85
35224;BME280;21367;51.930;8.112;2023-03-05T20:40:34;100395.84;;;4.77;79.71
35224;BME280;21367;51.930;8.112;2023-03-05T20:45:38;100389.09;;;4.77;79.66
35224;BME280;21367;51.930;8.112;2023-03-05T20:50:45;100378.59;;;4.73;80.33
35224;BME280;21367;51.930;8.112;2023-03-05T20:55:49;100379.97;;;4.53;80.24
35224;BME280;21367;51.930;8.112;2023-03-05T21:00:53;100365.13;;;4.46;80.78
35224;BME280;21367;51.930;8.112;2023-03-05T21:06:00;100355.88;;;4.48;80.74
35224;BME280;21367;51.930;8.112;2023-03-05T21:11:05;100349.44;;;4.53;81.87
35224;BME280;21367;51.930;8.112;2023-03-05T21:16:14;100342.28;;;4.47;81.76
35224;BME280;21367;51.930;8.112;2023-03-05T21:21:21;100332.91;;;4.18;83.41
35224;BME280;21367;51.930;8.112;2023-03-05T21:26:24;100324.16;;;4.00;84.78
35224;BME280;21367;51.930;8.112;2023-03-05T21:31:29;100317.63;;;3.90;85.66
35224;BME280;21367;51.930;8.112;2023-03-05T21:36:35;100310.66;;;3.87;86.01
35224;BME280;21367;51.930;8.112;2023-03-05T21:41:39;100315.09;;;3.77;86.24
35224;BME280;21367;51.930;8.112;2023-03-05T21:46:45;100309.56;;;3.97;85.61
35224;BME280;21367;51.930;8.112;2023-03-05T21:52:17;100300.00;;;3.93;85.28
35224;BME280;21367;51.930;8.112;2023-03-05T21:57:22;100286.63;;;3.82;85.56
35224;BME280;21367;51.930;8.112;2023-03-05T22:02:27;100282.69;;;3.46;86.31
35224;BME280;21367;51.930;8.112;2023-03-05T22:07:33;100273.28;;;3.32;86.47
35224;BME280;21367;51.930;8.112;2023-03-05T22:12:55;100268.97;;;3.70;87.36
35224;BME280;21367;51.930;8.112;2023-03-05T22:18:13;100256.47;;;3.74;85.84
35224;BME280;21367;51.930;8.112;2023-03-05T22:23:20;100250.59;;;3.75;85.90
35224;BME280;21367;51.930;8.112;2023-03-05T22:28:25;100246.06;;;3.42;85.63
35224;BME280;21367;51.930;8.112;2023-03-05T22:33:28;100241.53;;;3.52;85.78
35224;BME280;21367;51.930;8.112;2023-03-05T22:38:35;100234.88;;;3.67;86.02
35224;BME280;21367;51.930;8.112;2023-03-05T22:43:39;100229.88;;;3.68;85.29
35224;BME280;21367;51.930;8.112;2023-03-05T22:48:44;100222.56;;;3.60;84.48
35224;BME280;21367;51.930;8.112;2023-03-05T22:53:50;100222.69;;;3.48;85.36
35224;BME280;21367;51.930;8.112;2023-03-05T22:58:54;100216.13;;;3.52;86.06
35224;BME280;21367;51.930;8.112;2023-03-05T23:04:28;100217.28;;;3.57;85.95
35224;BME280;21367;51.930;8.112;2023-03-05T23:09:55;100202.34;;;3.89;84.26
35224;BME280;21367;51.930;8.112;2023-03-05T23:15:01;100201.13;;;3.69;84.46
35224;BME280;21367;51.930;8.112;2023-03-05T23:20:07;100205.09;;;3.51;85.47
35224;BME280;21367;51.930;8.112;2023-03-05T23:25:14;100196.81;;;3.27;85.27
35224;BME280;21367;51.930;8.112;2023-03-05T23:30:20;100188.38;;;3.41;87.87
35224;BME280;21367;51.930;8.112;2023-03-05T23:35:27;100182.19;;;3.64;87.02
35224;BME280;21367;51.930;8.112;2023-03-05T23:40:34;100176.81;;;3.60;87.24
35224;BME280;21367;51.930;8.112;2023-03-05T23:45:39;100171.75;;;3.60;87.83
35224;BME280;21367;51.930;8.112;2023-03-05T23:50:46;100170.72;;;3.43;90.55
35224;BME280;21367;51.930;8.112;2023-03-05T23:55:52;100162.72;;;3.37;90.62
